createdAt,value
2023-02-23T00:00:29.531Z,40.95
2023-02-23T00:03:01.074Z,40.25
2023-02-23T00:05:30.883Z,41.08
2023-02-23T00:07:59.116Z,41.80
2023-02-23T00:10:30.489Z,40.72
2023-02-23T00:12:59.294Z,42.05
2023-02-23T00:15:29.913Z,41.45
2023-02-23T00:17:58.792Z,41.92
2023-02-23T00:20:27.550Z,40.65
2023-02-23T00:22:56.090Z,42.58
2023-02-23T00:25:24.393Z,41.60
2023-02-23T00:27:52.779Z,43.03
2023-02-23T00:30:21.259Z,42.15
2023-02-23T00:32:52.494Z,43.70
2023-02-23T00:35:20.195Z,41.25
2023-02-23T00:37:49.722Z,41.92
2023-02-23T00:40:21.422Z,42.80
2023-02-23T00:42:49.876Z,42.75
2023-02-23T00:45:17.608Z,43.53
2023-02-23T00:47:48.450Z,43.75
2023-02-23T00:50:19.356Z,43.42
2023-02-23T00:52:46.975Z,44.70
2023-02-23T00:55:16.199Z,43.58
2023-02-23T00:57:43.915Z,42.33
2023-02-23T01:00:18.733Z,40.45
2023-02-23T01:02:46.406Z,44.83
2023-02-23T01:05:14.102Z,45.40
2023-02-23T01:07:46.540Z,44.60
2023-02-23T01:10:20.290Z,44.23
2023-02-23T01:12:49.673Z,44.90
2023-02-23T01:15:18.533Z,42.95
2023-02-23T01:17:46.995Z,44.60
2023-02-23T01:20:18.792Z,44.72
2023-02-23T01:22:50.107Z,43.73
2023-02-23T01:25:18.678Z,44.10
2023-02-23T01:27:46.669Z,43.33
2023-02-23T01:30:16.466Z,46.05
2023-02-23T01:32:44.123Z,46.15
2023-02-23T01:35:13.858Z,45.37
2023-02-23T01:37:43.481Z,42.20
2023-02-23T01:40:16.697Z,45.20
2023-02-23T01:42:46.148Z,42.22
2023-02-23T01:45:24.751Z,40.80
2023-02-23T01:47:54.549Z,36.42
2023-02-23T01:50:22.602Z,41.17
2023-02-23T01:52:52.318Z,36.95
2023-02-23T01:55:24.427Z,34.97
2023-02-23T01:57:54.935Z,35.78
2023-02-23T02:00:26.106Z,36.58
2023-02-23T02:02:53.911Z,37.47
2023-02-23T02:05:21.946Z,39.58
2023-02-23T02:07:58.450Z,37.58
2023-02-23T02:10:44.160Z,36.17
2023-02-23T02:13:15.729Z,37.63
2023-02-23T02:15:55.108Z,33.85
2023-02-23T02:18:30.690Z,36.60
2023-02-23T02:21:19.055Z,34.97
2023-02-23T02:24:13.394Z,32.70
2023-02-23T02:26:53.626Z,33.45
2023-02-23T02:29:48.070Z,33.45
2023-02-23T02:32:47.398Z,34.95
2023-02-23T02:35:38.103Z,34.85
2023-02-23T02:38:23.377Z,31.45
2023-02-23T02:40:54.821Z,32.22
2023-02-23T02:43:27.997Z,34.10
2023-02-23T02:45:58.114Z,38.03
2023-02-23T02:48:33.218Z,35.53
2023-02-23T02:51:09.440Z,38.72
2023-02-23T02:53:43.029Z,36.03
2023-02-23T02:56:11.164Z,35.17
2023-02-23T02:58:39.384Z,38.92
2023-02-23T03:01:26.231Z,38.13
2023-02-23T03:04:11.625Z,38.35
2023-02-23T03:07:03.969Z,37.90
2023-02-23T03:09:55.100Z,38.03
2023-02-23T03:12:46.024Z,38.95
2023-02-23T03:15:41.187Z,39.35
2023-02-23T03:18:40.840Z,35.07
2023-02-23T03:21:32.911Z,33.95
2023-02-23T03:24:22.956Z,34.55
2023-02-23T03:27:12.494Z,32.80
2023-02-23T03:30:01.303Z,32.72
2023-02-23T03:32:49.160Z,34.08
2023-02-23T03:35:40.094Z,34.22
2023-02-23T03:38:28.925Z,35.90
2023-02-23T03:41:14.892Z,33.60
2023-02-23T03:44:06.048Z,32.05
2023-02-23T03:46:51.857Z,32.70
2023-02-23T03:49:37.716Z,32.72
2023-02-23T03:52:27.687Z,31.80
2023-02-23T03:55:15.586Z,35.50
2023-02-23T03:58:02.392Z,33.58
2023-02-23T04:00:51.970Z,32.97
2023-02-23T04:03:37.941Z,35.47
2023-02-23T04:06:27.063Z,35.20
2023-02-23T04:09:12.877Z,38.37
2023-02-23T04:12:01.420Z,40.40
2023-02-23T04:14:31.689Z,37.03
2023-02-23T04:16:59.679Z,38.40
2023-02-23T04:19:28.239Z,38.97
2023-02-23T04:21:55.894Z,43.20
2023-02-23T04:24:23.544Z,42.55
2023-02-23T04:26:51.210Z,43.40
2023-02-23T04:29:18.807Z,45.35
2023-02-23T04:31:47.369Z,44.72
2023-02-23T04:34:16.447Z,45.85
2023-02-23T04:36:44.065Z,44.03
2023-02-23T04:39:11.921Z,41.27
2023-02-23T04:41:39.607Z,42.42
2023-02-23T04:44:07.351Z,43.08
2023-02-23T04:46:35.113Z,41.95
2023-02-23T04:49:03.807Z,43.20
2023-02-23T04:51:34.003Z,39.50
2023-02-23T04:54:02.392Z,40.47
2023-02-23T04:56:30.181Z,39.35
2023-02-23T04:58:57.979Z,41.03
2023-02-23T05:01:25.770Z,42.60
2023-02-23T05:03:53.535Z,41.92
2023-02-23T05:06:21.194Z,45.42
2023-02-23T05:08:50.223Z,43.60
2023-02-23T05:11:18.216Z,44.33
2023-02-23T05:13:46.009Z,41.40
2023-02-23T05:16:13.876Z,45.42
2023-02-23T05:18:41.605Z,44.08
2023-02-23T05:21:09.852Z,43.28
2023-02-23T05:23:38.439Z,46.53
2023-02-23T05:26:10.046Z,44.67
2023-02-23T05:28:39.512Z,42.58
2023-02-23T05:31:07.730Z,41.75
2023-02-23T05:33:42.301Z,43.78
2023-02-23T05:36:11.830Z,47.17
2023-02-23T05:38:39.749Z,44.97
2023-02-23T05:41:09.627Z,48.00
2023-02-23T05:43:37.252Z,47.88
2023-02-23T05:46:08.066Z,49.58
2023-02-23T05:48:36.131Z,50.97
2023-02-23T05:51:04.351Z,50.42
2023-02-23T05:53:32.467Z,52.03
2023-02-23T05:56:00.143Z,53.47
2023-02-23T05:58:29.435Z,52.45
2023-02-23T06:00:57.166Z,54.85
2023-02-23T06:03:24.865Z,53.70
2023-02-23T06:05:53.092Z,53.20
2023-02-23T06:08:20.920Z,56.38
2023-02-23T06:10:48.737Z,56.37
2023-02-23T06:13:16.771Z,57.40
2023-02-23T06:15:46.047Z,55.53
2023-02-23T06:18:14.068Z,56.88
2023-02-23T06:20:41.751Z,57.63
2023-02-23T06:23:09.645Z,55.95
2023-02-23T06:25:37.260Z,56.30
2023-02-23T06:28:05.675Z,56.88
2023-02-23T06:30:33.319Z,57.30
2023-02-23T06:33:02.766Z,55.85
2023-02-23T06:35:30.510Z,55.10
2023-02-23T06:37:58.122Z,54.33
2023-02-23T06:40:25.765Z,56.17
2023-02-23T06:42:53.445Z,59.30
2023-02-23T06:45:21.079Z,57.00
2023-02-23T06:47:49.042Z,59.00
2023-02-23T06:50:18.808Z,59.00
2023-02-23T06:52:46.654Z,59.95
2023-02-23T06:55:14.439Z,58.97
2023-02-23T06:57:42.685Z,59.23
2023-02-23T07:00:12.672Z,59.20
2023-02-23T07:02:40.353Z,59.42
2023-02-23T07:05:08.695Z,61.20
2023-02-23T07:07:37.948Z,58.85
2023-02-23T07:10:06.843Z,60.03
2023-02-23T07:12:34.600Z,60.83
2023-02-23T07:15:02.214Z,60.00
2023-02-23T07:17:29.805Z,60.30
2023-02-23T07:19:57.557Z,59.85
2023-02-23T07:22:30.301Z,57.70
2023-02-23T07:24:59.371Z,58.08
2023-02-23T07:27:27.701Z,58.35
2023-02-23T07:29:55.498Z,59.03
2023-02-23T07:32:23.295Z,58.30
2023-02-23T07:34:53.691Z,58.30
2023-02-23T07:37:21.976Z,56.78
2023-02-23T07:39:49.681Z,55.83
2023-02-23T07:42:18.757Z,54.90
2023-02-23T07:44:46.446Z,58.08
2023-02-23T07:47:14.160Z,57.47
2023-02-23T07:49:42.271Z,57.38
2023-02-23T07:52:09.952Z,55.85
2023-02-23T07:54:37.674Z,56.00
2023-02-23T07:57:05.382Z,54.92
2023-02-23T07:59:34.653Z,54.53
2023-02-23T08:02:02.420Z,54.13
2023-02-23T08:04:30.130Z,54.20
2023-02-23T08:06:57.831Z,54.50
2023-02-23T08:09:25.691Z,54.30
2023-02-23T08:11:53.381Z,51.88
2023-02-23T08:14:23.738Z,50.40
2023-02-23T08:16:52.898Z,50.90
2023-02-23T08:19:22.845Z,50.55
2023-02-23T08:21:51.070Z,52.63
2023-02-23T08:24:18.920Z,52.50
2023-02-23T08:26:46.632Z,51.55
2023-02-23T08:29:14.361Z,53.85
2023-02-23T08:31:42.236Z,53.17
2023-02-23T08:34:11.595Z,52.60
2023-02-23T08:36:40.258Z,51.47
2023-02-23T08:39:10.062Z,50.70
2023-02-23T08:41:37.761Z,49.35
2023-02-23T08:44:05.484Z,50.10
2023-02-23T08:46:33.622Z,50.38
2023-02-23T08:49:01.419Z,50.92
2023-02-23T08:51:30.616Z,49.27
2023-02-23T08:53:58.252Z,48.03
2023-02-23T08:56:27.054Z,49.45
2023-02-23T08:58:55.009Z,51.77
2023-02-23T09:01:23.118Z,53.88
2023-02-23T09:03:51.378Z,48.50
2023-02-23T09:06:21.371Z,49.05
2023-02-23T09:08:50.768Z,46.95
2023-02-23T09:11:18.903Z,46.58
2023-02-23T09:13:47.000Z,47.40
2023-02-23T09:16:15.007Z,47.30
2023-02-23T09:18:43.406Z,46.22
2023-02-23T09:21:18.887Z,43.83
2023-02-23T09:23:48.243Z,45.75
2023-02-23T09:26:18.892Z,48.15
2023-02-23T09:28:47.107Z,46.08
2023-02-23T09:31:16.526Z,44.77
2023-02-23T09:33:44.490Z,46.42
2023-02-23T09:36:16.269Z,45.08
2023-02-23T09:38:44.634Z,43.10
2023-02-23T09:41:44.070Z,41.67
2023-02-23T09:44:17.505Z,40.10
2023-02-23T09:46:51.677Z,44.58
2023-02-23T09:49:21.740Z,43.00
2023-02-23T09:51:55.378Z,38.40
2023-02-23T09:54:24.183Z,42.70
2023-02-23T09:56:56.326Z,38.55
2023-02-23T09:59:25.210Z,36.65
2023-02-23T10:02:00.311Z,40.08
2023-02-23T10:04:30.325Z,39.73
2023-02-23T10:07:01.375Z,37.70
2023-02-23T10:09:45.625Z,36.47
2023-02-23T10:12:19.799Z,38.92
2023-02-23T10:15:00.289Z,36.90
2023-02-23T10:17:37.588Z,35.58
2023-02-23T10:20:15.071Z,34.20
2023-02-23T10:22:43.578Z,38.30
2023-02-23T10:25:14.055Z,33.10
2023-02-23T10:27:45.426Z,31.83
2023-02-23T10:30:20.358Z,31.50
2023-02-23T10:32:52.922Z,33.42
2023-02-23T10:35:22.450Z,29.75
2023-02-23T10:37:51.875Z,30.27
2023-02-23T10:40:22.980Z,29.67
2023-02-23T10:42:52.816Z,26.87
2023-02-23T10:45:24.712Z,25.83
2023-02-23T10:47:56.537Z,24.65
2023-02-23T10:50:27.601Z,22.20
2023-02-23T10:52:58.204Z,23.10
2023-02-23T10:55:27.878Z,23.58
2023-02-23T10:58:17.056Z,21.52
2023-02-23T11:00:53.276Z,23.13
2023-02-23T11:03:26.491Z,21.38
2023-02-23T11:05:59.781Z,21.23
2023-02-23T11:08:30.509Z,21.85
2023-02-23T11:11:00.787Z,21.13
2023-02-23T11:13:34.794Z,21.17
2023-02-23T11:16:04.513Z,19.25
2023-02-23T11:18:32.505Z,20.05
2023-02-23T11:21:00.276Z,19.53
2023-02-23T11:23:30.195Z,20.02
2023-02-23T11:26:01.274Z,20.05
2023-02-23T11:28:32.887Z,19.05
2023-02-23T11:31:03.938Z,19.65
2023-02-23T11:33:36.123Z,20.60
2023-02-23T11:36:19.648Z,20.65
2023-02-23T11:38:47.999Z,18.77
2023-02-23T11:41:22.001Z,21.08
2023-02-23T11:43:52.825Z,20.30
2023-02-23T11:46:22.858Z,20.00
2023-02-23T11:48:54.142Z,19.10
2023-02-23T11:51:26.576Z,18.92
2023-02-23T11:53:54.371Z,18.15
2023-02-23T11:56:25.548Z,17.75
2023-02-23T11:58:57.685Z,18.70
2023-02-23T12:01:36.857Z,17.42
2023-02-23T12:04:04.978Z,16.95
2023-02-23T12:06:34.394Z,17.13
2023-02-23T12:09:07.920Z,17.85
2023-02-23T12:11:39.528Z,15.77
2023-02-23T12:14:13.582Z,15.45
2023-02-23T12:16:44.766Z,14.55
2023-02-23T12:19:24.074Z,15.50
2023-02-23T12:21:57.574Z,15.43
2023-02-23T12:24:40.220Z,16.52
2023-02-23T12:27:13.669Z,16.48
2023-02-23T12:29:56.752Z,15.40
2023-02-23T12:32:27.926Z,14.30
2023-02-23T12:34:57.804Z,14.90
2023-02-23T12:37:37.072Z,14.82
2023-02-23T12:40:13.690Z,14.70
2023-02-23T12:42:46.649Z,12.95
2023-02-23T12:45:21.695Z,14.23
2023-02-23T12:47:55.036Z,14.68
2023-02-23T12:50:28.527Z,15.10
2023-02-23T12:52:58.749Z,15.47
2023-02-23T12:55:38.394Z,16.83
2023-02-23T12:58:09.915Z,16.10
2023-02-23T13:00:44.505Z,15.75
2023-02-23T13:03:25.082Z,14.30
2023-02-23T13:05:58.003Z,14.77
2023-02-23T13:08:32.736Z,14.47
2023-02-23T13:11:07.478Z,15.60
2023-02-23T13:13:40.750Z,15.63
2023-02-23T13:16:13.408Z,15.23
2023-02-23T13:18:47.379Z,15.90
2023-02-23T13:21:20.698Z,16.80
2023-02-23T13:23:56.222Z,15.80
2023-02-23T13:26:30.170Z,15.98
2023-02-23T13:29:01.455Z,16.25
2023-02-23T13:31:33.557Z,16.25
2023-02-23T13:34:03.293Z,16.25
2023-02-23T13:36:33.362Z,16.98
2023-02-23T13:39:29.945Z,16.98
2023-02-23T13:42:10.520Z,18.35
2023-02-23T13:44:40.693Z,18.47
2023-02-23T13:47:19.258Z,18.43
2023-02-23T13:49:51.196Z,18.05
2023-02-23T13:52:27.961Z,17.23
2023-02-23T13:54:58.764Z,18.48
2023-02-23T13:57:28.446Z,18.13
2023-02-23T13:59:56.257Z,15.88
2023-02-23T14:02:34.667Z,18.33
2023-02-23T14:05:08.219Z,15.52
2023-02-23T14:07:42.339Z,18.02
2023-02-23T14:10:15.859Z,18.80
2023-02-23T14:12:45.267Z,19.60
2023-02-23T14:15:44.294Z,18.75
2023-02-23T14:18:32.349Z,17.20
2023-02-23T14:21:09.785Z,17.73
2023-02-23T14:23:40.679Z,18.25
2023-02-23T14:26:15.728Z,17.30
2023-02-23T14:28:46.819Z,16.95
2023-02-23T14:31:22.478Z,16.90
2023-02-23T14:33:55.750Z,18.48
2023-02-23T14:36:35.901Z,17.50
2023-02-23T14:39:06.872Z,18.13
2023-02-23T14:41:40.863Z,16.90
2023-02-23T14:44:20.183Z,16.63
2023-02-23T14:46:58.310Z,16.55
2023-02-23T14:49:31.862Z,16.30
2023-02-23T14:52:05.759Z,15.85
2023-02-23T14:54:35.286Z,16.80
2023-02-23T14:57:04.666Z,15.50
2023-02-23T14:59:39.727Z,16.20
2023-02-23T15:02:13.523Z,15.60
2023-02-23T15:04:43.676Z,15.88
2023-02-23T15:07:24.830Z,15.37
2023-02-23T15:09:53.817Z,15.68
2023-02-23T15:12:26.782Z,16.20
2023-02-23T15:14:58.061Z,16.15
2023-02-23T15:17:27.919Z,16.67
2023-02-23T15:20:14.362Z,16.60
2023-02-23T15:22:44.947Z,16.75
2023-02-23T15:25:16.348Z,16.20
2023-02-23T15:27:46.056Z,18.38
2023-02-23T15:30:24.236Z,17.40
2023-02-23T15:33:00.907Z,18.33
2023-02-23T15:35:30.584Z,18.15
2023-02-23T15:38:11.301Z,17.38
2023-02-23T15:40:42.315Z,16.50
2023-02-23T15:43:10.558Z,18.52
2023-02-23T15:45:42.722Z,16.33
2023-02-23T15:48:17.288Z,15.68
2023-02-23T15:50:50.200Z,16.30
2023-02-23T15:53:31.260Z,16.20
2023-02-23T15:56:04.318Z,14.88
2023-02-23T15:58:35.133Z,14.90
2023-02-23T16:01:11.783Z,14.40
2023-02-23T16:03:44.078Z,13.63
2023-02-23T16:06:24.381Z,13.60
2023-02-23T16:08:59.536Z,14.23
2023-02-23T16:11:28.095Z,15.45
2023-02-23T16:13:55.926Z,14.23
2023-02-23T16:16:25.691Z,14.05
2023-02-23T16:18:54.893Z,13.70
2023-02-23T16:21:25.670Z,14.65
2023-02-23T16:23:55.013Z,13.93
2023-02-23T16:26:26.242Z,14.43
2023-02-23T16:28:57.382Z,14.65
2023-02-23T16:31:28.356Z,14.23
2023-02-23T16:33:59.936Z,13.93
2023-02-23T16:36:38.590Z,14.60
2023-02-23T16:39:11.236Z,14.20
2023-02-23T16:41:39.000Z,13.90
2023-02-23T16:44:07.844Z,14.10
2023-02-23T16:46:59.758Z,14.18
2023-02-23T16:49:29.990Z,15.07
2023-02-23T16:51:59.968Z,14.40
2023-02-23T16:54:28.287Z,14.87
2023-02-23T16:56:56.645Z,14.70
2023-02-23T16:59:24.994Z,14.25
2023-02-23T17:01:52.726Z,14.70
2023-02-23T17:04:21.848Z,14.50
2023-02-23T17:06:57.978Z,15.15
2023-02-23T17:09:27.473Z,15.50
2023-02-23T17:11:57.045Z,14.88
2023-02-23T17:14:28.267Z,14.83
2023-02-23T17:16:56.223Z,15.77
2023-02-23T17:19:24.677Z,16.02
2023-02-23T17:21:53.834Z,16.42
2023-02-23T17:24:25.994Z,16.30
2023-02-23T17:26:55.578Z,16.42
2023-02-23T17:29:24.132Z,15.80
2023-02-23T17:31:52.239Z,15.68
2023-02-23T17:34:20.150Z,15.45
2023-02-23T17:36:47.948Z,15.38
2023-02-23T17:39:16.858Z,16.33
2023-02-23T17:41:44.844Z,16.67
2023-02-23T17:44:14.152Z,14.98
2023-02-23T17:46:41.841Z,15.93
2023-02-23T17:49:09.834Z,16.17
2023-02-23T17:51:37.838Z,16.10
2023-02-23T17:54:05.680Z,17.65
2023-02-23T17:56:33.702Z,17.03
2023-02-23T17:59:01.391Z,16.83
2023-02-23T18:01:30.590Z,17.27
2023-02-23T18:03:59.351Z,16.80
2023-02-23T18:06:27.867Z,17.00
2023-02-23T18:08:55.504Z,15.68
2023-02-23T18:11:23.718Z,16.08
2023-02-23T18:13:52.291Z,16.55
2023-02-23T18:16:20.433Z,16.88
2023-02-23T18:18:49.781Z,17.75
2023-02-23T18:21:19.311Z,17.75
2023-02-23T18:23:48.052Z,17.40
2023-02-23T18:26:17.445Z,17.35
2023-02-23T18:28:45.933Z,17.92
2023-02-23T18:31:15.588Z,18.55
2023-02-23T18:33:44.952Z,18.00
2023-02-23T18:36:21.833Z,19.00
2023-02-23T18:38:49.976Z,19.67
2023-02-23T18:41:18.362Z,19.20
2023-02-23T18:43:46.603Z,18.98
2023-02-23T18:46:15.228Z,18.77
2023-02-23T18:48:43.407Z,19.75
2023-02-23T18:51:14.147Z,18.45
2023-02-23T18:53:44.520Z,15.48
2023-02-23T18:56:14.311Z,12.77
2023-02-23T18:58:43.145Z,10.13
2023-02-23T19:01:18.237Z,9.13
2023-02-23T19:03:46.192Z,7.32
2023-02-23T19:06:16.064Z,7.13
2023-02-23T19:08:45.790Z,7.10
2023-02-23T19:11:13.512Z,5.72
2023-02-23T19:13:41.512Z,5.70
2023-02-23T19:16:09.706Z,5.40
2023-02-23T19:18:37.715Z,5.65
2023-02-23T19:21:06.705Z,5.90
2023-02-23T19:23:34.477Z,5.78
2023-02-23T19:26:05.548Z,6.20
2023-02-23T19:28:33.430Z,6.57
2023-02-23T19:31:05.906Z,6.28
2023-02-23T19:33:34.248Z,6.80
2023-02-23T19:36:05.845Z,6.50
2023-02-23T19:38:34.183Z,6.72
2023-02-23T19:41:06.456Z,6.78
2023-02-23T19:43:34.755Z,5.97
2023-02-23T19:46:05.094Z,5.90
2023-02-23T19:48:33.158Z,5.78
2023-02-23T19:51:00.853Z,5.22
2023-02-23T19:53:29.553Z,5.00
2023-02-23T19:56:01.585Z,5.32
2023-02-23T19:58:30.614Z,4.38
2023-02-23T20:00:58.453Z,4.88
2023-02-23T20:03:28.556Z,4.10
2023-02-23T20:05:56.929Z,3.90
2023-02-23T20:08:25.251Z,4.50
2023-02-23T20:10:53.507Z,4.00
2023-02-23T20:13:23.576Z,4.00
2023-02-23T20:16:01.425Z,4.07
2023-02-23T20:18:29.391Z,3.55
2023-02-23T20:20:57.316Z,3.63
2023-02-23T20:23:25.267Z,2.85
2023-02-23T20:25:52.966Z,2.90
2023-02-23T20:28:20.622Z,3.08
2023-02-23T20:30:49.020Z,3.05
2023-02-23T20:33:18.283Z,4.40
2023-02-23T20:35:45.994Z,3.85
2023-02-23T20:38:15.436Z,2.90
2023-02-23T20:40:43.139Z,3.10
2023-02-23T20:43:10.824Z,3.92
2023-02-23T20:45:41.317Z,3.40
2023-02-23T20:48:09.763Z,3.83
2023-02-23T20:50:39.453Z,4.32
2023-02-23T20:53:08.467Z,3.50
2023-02-23T20:55:36.390Z,3.63
2023-02-23T20:58:05.526Z,4.40
2023-02-23T21:00:33.799Z,3.38
2023-02-23T21:03:02.871Z,2.83
2023-02-23T21:05:32.640Z,3.80
2023-02-23T21:08:03.110Z,3.37
2023-02-23T21:10:31.765Z,3.53
2023-02-23T21:12:59.576Z,3.15
2023-02-23T21:15:29.053Z,3.38
2023-02-23T21:17:57.220Z,3.47
2023-02-23T21:20:25.871Z,3.47
2023-02-23T21:22:53.585Z,4.10
2023-02-23T21:25:25.139Z,3.47
2023-02-23T21:27:54.179Z,4.20
2023-02-23T21:30:24.105Z,4.28
2023-02-23T21:32:53.856Z,3.30
2023-02-23T21:35:21.945Z,4.32
2023-02-23T21:37:51.705Z,3.95
2023-02-23T21:40:20.766Z,3.47
2023-02-23T21:42:50.893Z,4.20
2023-02-23T21:45:19.238Z,3.97
2023-02-23T21:47:48.275Z,4.63
2023-02-23T21:50:17.964Z,3.95
2023-02-23T21:52:48.578Z,4.40
2023-02-23T21:55:24.644Z,4.22
2023-02-23T21:57:54.867Z,4.53
2023-02-23T22:00:23.068Z,4.50
2023-02-23T22:02:51.209Z,5.18
2023-02-23T22:05:19.808Z,4.32
2023-02-23T22:07:52.261Z,4.85
2023-02-23T22:10:21.393Z,4.53
2023-02-23T22:12:50.186Z,6.53
2023-02-23T22:15:19.654Z,4.40
2023-02-23T22:17:47.312Z,4.95
2023-02-23T22:20:15.443Z,4.90
2023-02-23T22:22:43.713Z,4.75
2023-02-23T22:25:11.866Z,5.30
2023-02-23T22:27:41.637Z,4.80
2023-02-23T22:30:12.139Z,5.15
2023-02-23T22:32:42.669Z,4.70
2023-02-23T22:35:11.113Z,4.38
2023-02-23T22:37:39.873Z,5.00
2023-02-23T22:43:08.906Z,5.43
2023-02-23T22:45:36.795Z,5.33
2023-02-23T22:48:07.412Z,4.80
2023-02-23T22:50:36.524Z,5.13
2023-02-23T22:53:05.892Z,5.47
2023-02-23T22:55:35.017Z,5.10
2023-02-23T22:58:08.365Z,5.22
2023-02-23T23:00:36.197Z,6.45
2023-02-23T23:03:05.946Z,5.37
2023-02-23T23:05:34.097Z,6.20
2023-02-23T23:08:01.807Z,5.88
2023-02-23T23:10:30.149Z,5.33
2023-02-23T23:12:59.248Z,4.97
2023-02-23T23:15:27.093Z,5.28
2023-02-23T23:17:55.035Z,4.50
2023-02-23T23:20:25.800Z,4.72
2023-02-23T23:22:53.986Z,5.03
2023-02-23T23:25:23.833Z,4.78
2023-02-23T23:27:53.840Z,4.90
2023-02-23T23:30:26.017Z,5.82
2023-02-23T23:32:54.404Z,5.15
2023-02-23T23:35:23.002Z,6.05
2023-02-23T23:37:52.626Z,7.00
2023-02-23T23:40:24.702Z,6.05
2023-02-23T23:42:53.243Z,5.63
2023-02-23T23:45:24.462Z,5.43
2023-02-23T23:47:52.253Z,5.70
2023-02-23T23:50:26.536Z,6.03
2023-02-23T23:52:57.079Z,4.77
2023-02-23T23:55:24.916Z,5.80
2023-02-23T23:57:52.734Z,4.25
